createdAt,value
2022-08-25T00:03:14.500Z,24.15
2022-08-25T00:08:18.467Z,24.34
2022-08-25T00:13:21.190Z,24.45
2022-08-25T00:18:28.570Z,24.39
2022-08-25T00:23:31.930Z,24.40
2022-08-25T00:28:36.586Z,24.37
2022-08-25T00:33:39.441Z,24.51
2022-08-25T00:38:44.044Z,24.66
2022-08-25T00:43:48.945Z,24.78
2022-08-25T00:48:58.261Z,24.94
2022-08-25T00:54:02.798Z,25.23
2022-08-25T00:59:05.933Z,25.37
2022-08-25T01:04:09.053Z,25.41
2022-08-25T01:09:14.150Z,25.53
2022-08-25T01:14:19.965Z,25.76
2022-08-25T01:19:22.721Z,25.81
2022-08-25T01:24:44.235Z,25.90
2022-08-25T01:29:46.967Z,26.04
2022-08-25T01:34:49.881Z,26.17
2022-08-25T01:39:55.102Z,26.26
2022-08-25T01:44:57.859Z,26.36
2022-08-25T01:50:00.643Z,26.33
2022-08-25T01:55:05.279Z,26.39
2022-08-25T02:00:12.830Z,26.46
2022-08-25T02:05:18.487Z,26.34
2022-08-25T02:10:25.640Z,26.31
2022-08-25T02:15:28.525Z,26.24
2022-08-25T02:20:31.307Z,26.22
2022-08-25T02:25:34.409Z,26.10
2022-08-25T02:30:39.053Z,25.93
2022-08-25T02:35:42.381Z,25.85
2022-08-25T02:40:45.107Z,25.77
2022-08-25T02:45:48.157Z,25.69
2022-08-25T02:50:52.940Z,25.70
2022-08-25T02:55:55.985Z,25.75
2022-08-25T03:00:58.740Z,25.73
2022-08-25T03:06:02.593Z,25.70
2022-08-25T03:11:06.513Z,25.61
2022-08-25T03:16:11.453Z,25.68
2022-08-25T03:21:16.477Z,25.75
2022-08-25T03:26:49.331Z,25.67
2022-08-25T03:31:54.937Z,25.75
2022-08-25T03:36:58.934Z,25.88
2022-08-25T03:42:03.166Z,26.05
2022-08-25T03:47:07.252Z,26.16
2022-08-25T03:52:10.570Z,26.14
2022-08-25T03:57:13.604Z,26.13
2022-08-25T04:02:16.337Z,26.22
2022-08-25T04:07:20.038Z,26.31
2022-08-25T04:12:23.926Z,26.43
2022-08-25T04:17:26.924Z,26.47
2022-08-25T04:22:31.170Z,26.51
2022-08-25T04:27:37.614Z,26.70
2022-08-25T04:32:40.408Z,26.92
2022-08-25T04:37:43.309Z,27.07
2022-08-25T04:42:48.057Z,27.18
2022-08-25T04:47:54.845Z,27.49
2022-08-25T04:52:58.706Z,27.39
2022-08-25T04:58:01.568Z,26.28
2022-08-25T05:03:05.976Z,25.89
2022-08-25T05:08:08.927Z,26.39
2022-08-25T05:13:11.829Z,26.26
2022-08-25T05:18:14.737Z,25.96
2022-08-25T05:23:17.832Z,25.84
2022-08-25T05:28:21.171Z,25.70
2022-08-25T05:33:24.017Z,25.55
2022-08-25T05:38:27.450Z,25.41
2022-08-25T05:43:31.105Z,25.50
2022-08-25T05:48:34.416Z,25.52
2022-08-25T05:53:39.245Z,25.16
2022-08-25T05:58:43.575Z,25.10
2022-08-25T06:03:47.831Z,25.34
2022-08-25T06:08:50.689Z,25.63
2022-08-25T06:13:54.271Z,25.78
2022-08-25T06:18:57.043Z,25.60
2022-08-25T06:23:59.986Z,25.50
2022-08-25T06:29:03.957Z,25.33
2022-08-25T06:34:06.805Z,24.96
2022-08-25T06:39:10.586Z,25.29
2022-08-25T06:44:13.490Z,25.27
2022-08-25T06:49:16.234Z,25.02
2022-08-25T06:54:18.943Z,24.90
2022-08-25T06:59:22.381Z,24.97
2022-08-25T07:04:25.793Z,25.10
2022-08-25T07:09:28.993Z,25.41
2022-08-25T07:14:31.751Z,25.72
2022-08-25T07:19:34.834Z,25.65
2022-08-25T07:24:37.624Z,25.62
2022-08-25T07:29:42.214Z,25.62
2022-08-25T07:35:04.354Z,25.64
2022-08-25T07:40:08.347Z,25.70
2022-08-25T07:45:12.652Z,25.84
2022-08-25T07:50:15.411Z,25.93
2022-08-25T07:55:18.460Z,26.06
2022-08-25T08:00:32.173Z,26.40
2022-08-25T08:05:37.454Z,26.58
2022-08-25T08:11:04.030Z,27.18
2022-08-25T08:16:09.948Z,27.61
2022-08-25T08:21:19.230Z,27.82
2022-08-25T08:26:36.526Z,28.30
2022-08-25T08:31:48.648Z,28.77
2022-08-25T08:36:52.090Z,29.06
2022-08-25T08:42:19.246Z,29.26
2022-08-25T08:47:35.847Z,29.49
2022-08-25T08:52:48.779Z,29.27
2022-08-25T08:57:55.795Z,28.33
2022-08-25T09:03:07.700Z,28.01
2022-08-25T09:08:13.775Z,28.00
2022-08-25T09:14:00.419Z,28.05
2022-08-25T09:19:32.149Z,28.65
2022-08-25T09:24:52.669Z,28.98
2022-08-25T09:30:10.199Z,29.22
2022-08-25T09:35:26.344Z,29.41
2022-08-25T09:40:35.451Z,29.84
2022-08-25T09:45:46.425Z,30.05
2022-08-25T09:50:51.438Z,29.51
2022-08-25T09:56:04.705Z,29.85
2022-08-25T10:01:25.790Z,30.87
2022-08-25T10:06:43.532Z,31.22
2022-08-25T10:11:48.509Z,30.80
2022-08-25T10:16:53.469Z,30.54
2022-08-25T10:22:12.827Z,30.34
2022-08-25T10:27:39.504Z,30.29
2022-08-25T10:32:52.099Z,31.54
2022-08-25T10:37:59.070Z,32.38
2022-08-25T10:43:43.689Z,32.36
2022-08-25T10:49:10.631Z,32.68
2022-08-25T10:54:52.027Z,33.13
2022-08-25T11:00:14.118Z,33.29
2022-08-25T11:05:31.186Z,33.37
2022-08-25T11:11:02.662Z,33.36
2022-08-25T11:16:19.208Z,33.76
2022-08-25T11:21:48.846Z,34.95
2022-08-25T11:26:56.281Z,36.36
2022-08-25T11:32:02.090Z,38.28
2022-08-25T11:37:34.900Z,39.17
2022-08-25T11:43:20.270Z,38.54
2022-08-25T11:48:30.409Z,37.58
2022-08-25T11:53:37.965Z,37.00
2022-08-25T11:58:53.931Z,36.49
2022-08-25T12:04:34.057Z,36.02
2022-08-25T12:10:10.997Z,35.74
2022-08-25T12:16:00.564Z,35.28
2022-08-25T12:21:06.448Z,34.66
2022-08-25T12:26:30.326Z,34.35
2022-08-25T12:32:07.189Z,34.04
2022-08-25T12:37:15.780Z,34.18
2022-08-25T12:42:38.678Z,34.26
2022-08-25T12:47:47.613Z,34.46
2022-08-25T12:52:52.786Z,34.86
2022-08-25T12:57:59.047Z,35.27
2022-08-25T13:03:01.916Z,35.49
2022-08-25T13:08:49.600Z,35.53
2022-08-25T13:14:15.494Z,35.19
2022-08-25T13:19:20.291Z,34.77
2022-08-25T13:24:32.085Z,34.53
2022-08-25T13:29:58.357Z,34.37
2022-08-25T13:35:08.909Z,34.05
2022-08-25T13:40:27.809Z,33.82
2022-08-25T13:45:41.234Z,33.74
2022-08-25T13:50:51.629Z,33.65
2022-08-25T13:55:58.924Z,33.51
2022-08-25T14:01:23.206Z,33.46
2022-08-25T14:06:29.670Z,33.64
2022-08-25T14:11:48.703Z,33.75
2022-08-25T14:17:05.008Z,33.76
2022-08-25T14:22:19.750Z,33.70
2022-08-25T14:27:22.729Z,33.58
2022-08-25T14:32:25.488Z,33.51
2022-08-25T14:37:29.296Z,33.38
2022-08-25T14:42:35.253Z,33.14
2022-08-25T14:47:38.325Z,32.98
2022-08-25T14:52:43.548Z,33.04
2022-08-25T14:57:47.115Z,33.24
2022-08-25T15:02:51.717Z,34.25
2022-08-25T15:08:14.892Z,36.13
2022-08-25T15:13:17.852Z,38.03
2022-08-25T15:18:22.803Z,39.23
2022-08-25T15:23:26.445Z,39.97
2022-08-25T15:28:29.449Z,40.42
2022-08-25T15:33:33.712Z,40.61
2022-08-25T15:38:37.568Z,40.52
2022-08-25T15:43:40.813Z,40.36
2022-08-25T15:48:43.689Z,39.99
2022-08-25T15:53:47.128Z,39.71
2022-08-25T15:58:50.730Z,39.12
2022-08-25T16:03:54.774Z,37.57
2022-08-25T16:08:58.977Z,35.99
2022-08-25T16:14:02.525Z,34.67
2022-08-25T16:19:06.889Z,33.65
2022-08-25T16:24:09.744Z,32.73
2022-08-25T16:29:14.619Z,31.96
2022-08-25T16:34:17.352Z,31.30
2022-08-25T16:39:23.963Z,30.84
2022-08-25T16:44:27.244Z,30.36
2022-08-25T16:49:31.247Z,29.90
2022-08-25T16:54:52.392Z,29.42
2022-08-25T16:59:55.928Z,28.96
2022-08-25T17:04:59.387Z,28.60
2022-08-25T17:10:05.349Z,28.27
2022-08-25T17:15:09.421Z,27.97
2022-08-25T17:20:12.108Z,28.04
2022-08-25T17:25:14.966Z,29.08
2022-08-25T17:30:17.795Z,29.60
2022-08-25T17:35:20.851Z,30.03
2022-08-25T17:40:24.938Z,29.88
2022-08-25T17:45:29.786Z,28.66
2022-08-25T17:50:36.304Z,27.80
2022-08-25T17:55:43.142Z,27.57
2022-08-25T18:00:47.099Z,28.20
2022-08-25T18:05:50.407Z,28.45
2022-08-25T18:10:53.215Z,28.58
2022-08-25T18:15:55.986Z,28.75
2022-08-25T18:20:58.790Z,28.84
2022-08-25T18:26:02.645Z,28.93
2022-08-25T18:31:05.847Z,29.21
2022-08-25T18:36:11.211Z,29.37
2022-08-25T18:41:14.025Z,29.28
2022-08-25T18:46:17.142Z,29.20
2022-08-25T18:51:26.251Z,29.09
2022-08-25T18:56:30.250Z,28.82
2022-08-25T19:01:33.078Z,28.66
2022-08-25T19:06:37.722Z,28.66
2022-08-25T19:11:40.592Z,28.73
2022-08-25T19:16:44.390Z,28.60
2022-08-25T19:21:48.241Z,28.46
2022-08-25T19:26:54.567Z,28.45
2022-08-25T19:32:01.170Z,28.40
2022-08-25T19:37:06.076Z,28.19
2022-08-25T19:42:35.098Z,27.88
2022-08-25T19:47:33.090Z,28.31
2022-08-25T19:52:37.166Z,28.61
2022-08-25T19:57:42.630Z,28.80
2022-08-25T20:02:47.291Z,28.77
2022-08-25T20:07:54.068Z,28.02
2022-08-25T20:12:56.860Z,27.43
2022-08-25T20:18:00.990Z,27.08
2022-08-25T20:23:24.316Z,27.13
2022-08-25T20:28:27.059Z,26.77
2022-08-25T20:33:30.635Z,26.15
2022-08-25T20:38:33.665Z,25.68
2022-08-25T20:43:36.363Z,25.36
2022-08-25T20:48:39.290Z,25.21
2022-08-25T20:53:43.944Z,24.91
2022-08-25T20:58:48.683Z,24.84
2022-08-25T21:03:51.419Z,24.78
2022-08-25T21:08:54.629Z,24.58
2022-08-25T21:13:58.884Z,24.38
2022-08-25T21:19:02.463Z,24.34
2022-08-25T21:24:09.701Z,24.31
2022-08-25T21:29:15.245Z,24.26
2022-08-25T21:34:20.088Z,24.21
2022-08-25T21:39:26.451Z,24.16
2022-08-25T21:44:30.257Z,24.10
2022-08-25T21:49:37.324Z,24.06
2022-08-25T21:54:40.812Z,24.00
2022-08-25T21:59:43.955Z,23.95
2022-08-25T22:04:48.789Z,23.92
2022-08-25T22:09:52.057Z,23.87
2022-08-25T22:14:55.612Z,23.81
2022-08-25T22:19:58.993Z,23.76
2022-08-25T22:25:01.906Z,23.70
2022-08-25T22:30:05.706Z,23.61
2022-08-25T22:35:09.515Z,23.48
2022-08-25T22:40:13.254Z,23.37
2022-08-25T22:45:17.537Z,23.29
2022-08-25T22:50:20.456Z,23.22
2022-08-25T22:55:23.804Z,23.16
2022-08-25T23:00:27.416Z,23.08
2022-08-25T23:05:30.273Z,23.00
2022-08-25T23:10:34.592Z,22.91
2022-08-25T23:15:38.108Z,22.83
2022-08-25T23:20:59.801Z,22.79
2022-08-25T23:26:05.340Z,22.72
2022-08-25T23:31:09.549Z,22.64
2022-08-25T23:36:15.955Z,22.56
2022-08-25T23:41:23.201Z,22.48
2022-08-25T23:46:29.129Z,22.45
2022-08-25T23:51:34.229Z,22.42
2022-08-25T23:56:44.700Z,22.32
